createdAt,value
2023-05-05T00:01:43.698Z,10.55
2023-05-05T00:04:11.028Z,11.82
2023-05-05T00:06:38.127Z,11.20
2023-05-05T00:09:05.201Z,11.48
2023-05-05T00:11:32.488Z,11.63
2023-05-05T00:13:59.524Z,10.90
2023-05-05T00:16:26.709Z,11.77
2023-05-05T00:18:53.905Z,12.25
2023-05-05T00:21:21.108Z,11.40
2023-05-05T00:23:48.383Z,11.15
2023-05-05T00:26:15.498Z,12.40
2023-05-05T00:28:48.831Z,10.65
2023-05-05T00:31:17.099Z,10.32
2023-05-05T00:33:44.244Z,10.43
2023-05-05T00:36:11.646Z,9.98
2023-05-05T00:38:38.972Z,10.57
2023-05-05T00:41:06.029Z,9.65
2023-05-05T00:43:33.761Z,10.35
2023-05-05T00:46:03.303Z,10.77
2023-05-05T00:48:31.466Z,10.45
2023-05-05T00:51:00.291Z,11.63
2023-05-05T00:53:28.512Z,10.70
2023-05-05T00:55:55.647Z,10.43
2023-05-05T00:58:23.366Z,11.70
2023-05-05T01:00:50.852Z,10.52
2023-05-05T01:03:19.101Z,11.30
2023-05-05T01:05:59.337Z,10.60
2023-05-05T01:08:41.429Z,10.88
2023-05-05T01:11:38.310Z,10.90
2023-05-05T01:14:19.672Z,10.57
2023-05-05T01:16:59.199Z,11.05
2023-05-05T01:19:58.517Z,10.48
2023-05-05T01:22:34.781Z,10.40
2023-05-05T01:25:41.242Z,12.63
2023-05-05T01:28:20.421Z,12.00
2023-05-05T01:31:18.226Z,11.98
2023-05-05T01:33:52.478Z,10.68
2023-05-05T01:36:29.254Z,11.52
2023-05-05T01:38:59.581Z,11.60
2023-05-05T01:41:43.838Z,11.43
2023-05-05T01:44:13.896Z,11.77
2023-05-05T01:46:41.095Z,11.40
2023-05-05T01:49:12.116Z,12.23
2023-05-05T01:51:41.117Z,12.77
2023-05-05T01:54:10.098Z,12.45
2023-05-05T01:56:40.413Z,13.73
2023-05-05T01:59:10.329Z,13.45
2023-05-05T02:01:41.982Z,13.65
2023-05-05T02:04:10.268Z,12.68
2023-05-05T02:06:40.654Z,12.73
2023-05-05T02:09:12.202Z,12.07
2023-05-05T02:11:41.006Z,12.45
2023-05-05T02:14:09.580Z,12.80
2023-05-05T02:16:39.061Z,11.45
2023-05-05T02:19:12.581Z,11.68
2023-05-05T02:21:40.661Z,11.82
2023-05-05T02:24:09.171Z,11.63
2023-05-05T02:26:40.177Z,12.15
2023-05-05T02:29:12.806Z,11.55
2023-05-05T02:31:45.662Z,11.30
2023-05-05T02:34:19.254Z,10.85
2023-05-05T02:36:48.622Z,11.15
2023-05-05T02:39:25.537Z,13.30
2023-05-05T02:41:54.445Z,10.93
2023-05-05T02:44:27.957Z,10.35
2023-05-05T02:46:56.476Z,9.95
2023-05-05T02:49:24.604Z,11.93
2023-05-05T02:51:58.314Z,10.80
2023-05-05T02:54:29.490Z,10.52
2023-05-05T02:56:58.187Z,10.98
2023-05-05T03:00:15.886Z,10.43
2023-05-05T03:03:07.212Z,11.05
2023-05-05T03:06:17.889Z,12.73
2023-05-05T03:09:14.394Z,10.77
2023-05-05T03:14:18.770Z,9.93
2023-05-05T03:16:49.691Z,10.60
2023-05-05T03:19:19.100Z,11.15
2023-05-05T03:21:48.976Z,11.45
2023-05-05T03:24:19.182Z,10.93
2023-05-05T03:26:57.986Z,12.20
2023-05-05T03:29:31.977Z,10.93
2023-05-05T03:32:01.545Z,14.32
2023-05-05T03:34:30.150Z,16.65
2023-05-05T03:36:58.565Z,17.02
2023-05-05T03:39:26.380Z,11.63
2023-05-05T03:41:54.442Z,12.30
2023-05-05T03:44:22.790Z,13.20
2023-05-05T03:46:50.244Z,12.07
2023-05-05T03:49:18.539Z,11.77
2023-05-05T03:51:47.857Z,11.77
2023-05-05T03:54:15.591Z,11.10
2023-05-05T03:56:42.954Z,12.00
2023-05-05T03:59:11.682Z,11.60
2023-05-05T04:01:39.214Z,11.23
2023-05-05T04:04:07.024Z,11.50
2023-05-05T04:06:34.100Z,12.38
2023-05-05T04:09:01.817Z,11.45
2023-05-05T04:11:29.642Z,12.45
2023-05-05T04:13:58.082Z,11.20
2023-05-05T04:16:27.566Z,11.55
2023-05-05T04:18:56.391Z,10.60
2023-05-05T04:21:23.516Z,10.23
2023-05-05T04:23:51.157Z,9.95
2023-05-05T04:26:19.153Z,10.98
2023-05-05T04:28:47.144Z,10.90
2023-05-05T04:31:15.838Z,11.15
2023-05-05T04:33:45.361Z,11.70
2023-05-05T04:36:13.472Z,11.45
2023-05-05T04:38:41.496Z,11.60
2023-05-05T04:41:08.855Z,11.65
2023-05-05T04:43:38.418Z,12.85
2023-05-05T04:46:05.581Z,14.25
2023-05-05T04:48:37.566Z,13.88
2023-05-05T04:51:08.172Z,13.55
2023-05-05T04:53:36.897Z,12.43
2023-05-05T04:56:04.436Z,12.27
2023-05-05T04:58:32.314Z,12.00
2023-05-05T05:00:59.758Z,11.43
2023-05-05T05:03:27.593Z,11.15
2023-05-05T05:05:54.728Z,11.00
2023-05-05T05:08:22.236Z,11.38
2023-05-05T05:10:52.808Z,10.73
2023-05-05T05:13:20.256Z,11.57
2023-05-05T05:15:47.556Z,13.45
2023-05-05T05:18:15.348Z,13.13
2023-05-05T05:20:42.568Z,14.30
2023-05-05T05:23:09.735Z,11.43
2023-05-05T05:25:43.038Z,10.70
2023-05-05T05:28:11.462Z,9.80
2023-05-05T05:30:44.612Z,10.38
2023-05-05T05:33:12.484Z,9.68
2023-05-05T05:35:40.837Z,10.18
2023-05-05T05:38:09.036Z,10.65
2023-05-05T05:40:36.697Z,9.57
2023-05-05T05:43:04.479Z,9.25
2023-05-05T05:45:32.356Z,8.20
2023-05-05T05:47:59.553Z,8.35
2023-05-05T05:50:28.861Z,7.50
2023-05-05T05:52:57.278Z,7.70
2023-05-05T05:55:25.260Z,8.32
2023-05-05T05:57:53.106Z,9.25
2023-05-05T06:00:21.064Z,7.90
2023-05-05T06:02:54.897Z,9.20
2023-05-05T06:05:25.620Z,7.93
2023-05-05T06:07:52.954Z,9.32
2023-05-05T06:10:27.809Z,7.82
2023-05-05T06:13:00.781Z,7.40
2023-05-05T06:15:28.115Z,7.45
2023-05-05T06:17:55.751Z,6.00
2023-05-05T06:20:23.419Z,6.45
2023-05-05T06:22:50.809Z,6.97
2023-05-05T06:25:17.909Z,7.18
2023-05-05T06:27:45.622Z,6.32
2023-05-05T06:30:13.212Z,6.45
2023-05-05T06:32:40.416Z,6.63
2023-05-05T06:35:08.080Z,5.88
2023-05-05T06:37:35.199Z,5.57
2023-05-05T06:40:02.280Z,4.32
2023-05-05T06:42:31.137Z,4.32
2023-05-05T06:44:59.268Z,4.65
2023-05-05T06:47:26.607Z,4.60
2023-05-05T06:49:54.332Z,4.30
2023-05-05T06:52:23.200Z,4.75
2023-05-05T06:54:50.247Z,4.57
2023-05-05T06:57:17.918Z,4.72
2023-05-05T06:59:45.200Z,4.57
2023-05-05T07:02:12.795Z,4.28
2023-05-05T07:04:39.847Z,5.43
2023-05-05T07:07:07.091Z,4.13
2023-05-05T07:09:34.138Z,4.47
2023-05-05T07:12:01.246Z,3.50
2023-05-05T07:14:28.423Z,4.30
2023-05-05T07:16:55.944Z,3.97
2023-05-05T07:19:23.827Z,4.32
2023-05-05T07:21:52.235Z,4.28
2023-05-05T07:24:19.325Z,4.32
2023-05-05T07:26:46.534Z,4.45
2023-05-05T07:29:13.736Z,3.88
2023-05-05T07:31:41.023Z,3.70
2023-05-05T07:34:08.238Z,4.22
2023-05-05T07:36:35.581Z,3.75
2023-05-05T07:39:02.708Z,4.03
2023-05-05T07:41:29.811Z,3.90
2023-05-05T07:43:57.605Z,3.08
2023-05-05T07:46:24.775Z,3.60
2023-05-05T07:48:52.162Z,3.83
2023-05-05T07:51:19.431Z,3.42
2023-05-05T07:53:46.970Z,3.80
2023-05-05T07:56:14.086Z,3.13
2023-05-05T07:58:43.666Z,3.50
2023-05-05T08:01:11.650Z,3.70
2023-05-05T08:03:39.181Z,3.60
2023-05-05T08:06:12.094Z,3.92
2023-05-05T08:08:39.534Z,2.92
2023-05-05T08:11:07.123Z,3.10
2023-05-05T08:13:35.237Z,3.50
2023-05-05T08:16:02.723Z,3.65
2023-05-05T08:18:30.244Z,3.00
2023-05-05T08:20:58.125Z,3.00
2023-05-05T08:23:25.501Z,3.45
2023-05-05T08:25:52.683Z,2.95
2023-05-05T08:28:20.338Z,3.22
2023-05-05T08:30:47.443Z,3.28
2023-05-05T08:33:16.005Z,3.17
2023-05-05T08:35:43.931Z,3.17
2023-05-05T08:38:12.369Z,4.28
2023-05-05T08:40:41.521Z,3.45
2023-05-05T08:43:08.891Z,3.40
2023-05-05T08:45:37.101Z,3.70
2023-05-05T08:48:06.055Z,3.28
2023-05-05T08:50:33.456Z,4.00
2023-05-05T08:53:10.902Z,2.63
2023-05-05T08:55:56.556Z,3.58
2023-05-05T08:58:25.240Z,3.15
2023-05-05T09:00:54.124Z,3.17
2023-05-05T09:03:21.851Z,3.20
2023-05-05T09:05:49.389Z,3.45
2023-05-05T09:08:17.639Z,3.40
2023-05-05T09:10:45.074Z,2.78
2023-05-05T09:13:12.370Z,3.13
2023-05-05T09:15:40.338Z,3.10
2023-05-05T09:18:12.526Z,3.45
2023-05-05T09:20:40.327Z,3.53
2023-05-05T09:23:10.052Z,3.05
2023-05-05T09:25:37.771Z,2.90
2023-05-05T09:28:12.895Z,3.38
2023-05-05T09:30:41.697Z,2.75
2023-05-05T09:33:09.295Z,3.15
2023-05-05T09:35:56.015Z,3.25
2023-05-05T09:38:25.353Z,2.72
2023-05-05T09:40:54.018Z,2.65
2023-05-05T09:43:23.443Z,3.22
2023-05-05T09:45:51.382Z,2.97
2023-05-05T09:48:29.456Z,2.80
2023-05-05T09:50:58.025Z,2.50
2023-05-05T09:53:26.964Z,2.83
2023-05-05T09:55:54.497Z,2.83
2023-05-05T09:58:24.070Z,4.43
2023-05-05T10:00:51.564Z,3.70
2023-05-05T10:03:19.561Z,3.60
2023-05-05T10:05:57.653Z,3.05
2023-05-05T10:08:31.684Z,2.63
2023-05-05T10:11:03.204Z,3.55
2023-05-05T10:13:30.555Z,2.97
2023-05-05T10:15:58.199Z,6.05
2023-05-05T10:18:31.358Z,3.40
2023-05-05T10:21:00.434Z,3.42
2023-05-05T10:23:49.828Z,2.88
2023-05-05T10:26:20.195Z,3.55
2023-05-05T10:28:56.854Z,3.38
2023-05-05T10:31:39.644Z,4.13
2023-05-05T10:34:10.446Z,3.17
2023-05-05T10:36:39.181Z,3.13
2023-05-05T10:39:11.111Z,2.72
2023-05-05T10:41:39.154Z,3.53
2023-05-05T10:44:07.671Z,4.28
2023-05-05T10:46:35.140Z,3.35
2023-05-05T10:49:18.598Z,3.38
2023-05-05T10:52:06.326Z,7.13
2023-05-05T10:54:43.608Z,6.95
2023-05-05T10:57:12.364Z,3.15
2023-05-05T10:59:40.612Z,2.90
2023-05-05T11:02:28.542Z,2.75
2023-05-05T11:05:18.520Z,2.80
2023-05-05T11:07:47.086Z,4.53
2023-05-05T11:10:16.054Z,2.95
2023-05-05T11:13:03.542Z,6.20
2023-05-05T11:15:30.736Z,4.70
2023-05-05T11:18:03.921Z,2.97
2023-05-05T11:20:36.151Z,8.88
2023-05-05T11:23:03.398Z,4.35
2023-05-05T11:25:37.956Z,3.28
2023-05-05T11:28:09.690Z,3.80
2023-05-05T11:30:58.064Z,3.65
2023-05-05T11:33:39.375Z,4.65
2023-05-05T11:36:09.024Z,4.53
2023-05-05T11:39:04.845Z,4.30
2023-05-05T11:41:32.650Z,4.63
2023-05-05T11:44:10.833Z,4.00
2023-05-05T11:47:02.956Z,4.00
2023-05-05T11:49:35.144Z,3.30
2023-05-05T11:52:15.440Z,4.45
2023-05-05T11:54:50.737Z,3.22
2023-05-05T11:57:25.511Z,3.80
2023-05-05T12:00:06.651Z,4.10
2023-05-05T12:02:35.701Z,3.95
2023-05-05T12:05:03.606Z,3.85
2023-05-05T12:07:33.598Z,4.03
2023-05-05T12:10:01.709Z,3.78
2023-05-05T12:12:40.240Z,4.82
2023-05-05T12:15:09.780Z,3.85
2023-05-05T12:17:46.544Z,2.90
2023-05-05T12:20:14.689Z,3.65
2023-05-05T12:22:42.064Z,3.30
2023-05-05T12:25:10.856Z,3.00
2023-05-05T12:27:39.129Z,2.60
2023-05-05T12:30:18.573Z,3.08
2023-05-05T12:32:46.417Z,3.05
2023-05-05T12:35:14.503Z,3.03
2023-05-05T12:37:43.602Z,3.30
2023-05-05T12:40:47.348Z,4.00
2023-05-05T12:43:34.904Z,3.38
2023-05-05T12:46:05.112Z,4.20
2023-05-05T12:48:33.016Z,3.80
2023-05-05T12:51:17.496Z,3.33
2023-05-05T12:53:49.961Z,3.47
2023-05-05T12:56:35.981Z,3.40
2023-05-05T12:59:08.485Z,3.92
2023-05-05T13:01:37.809Z,4.35
2023-05-05T13:04:07.290Z,2.83
2023-05-05T13:06:35.279Z,3.83
2023-05-05T13:09:02.673Z,2.90
2023-05-05T13:11:30.350Z,3.25
2023-05-05T13:13:57.471Z,2.97
2023-05-05T13:16:25.175Z,3.20
2023-05-05T13:18:53.429Z,3.63
2023-05-05T13:21:20.714Z,3.92
2023-05-05T13:23:47.885Z,3.58
2023-05-05T13:26:15.153Z,3.45
2023-05-05T13:28:42.321Z,2.70
2023-05-05T13:31:09.542Z,3.10
2023-05-05T13:33:37.277Z,2.45
2023-05-05T13:36:05.042Z,2.63
2023-05-05T13:38:34.967Z,2.75
2023-05-05T13:41:03.312Z,2.97
2023-05-05T13:43:30.443Z,3.28
2023-05-05T13:46:05.703Z,3.22
2023-05-05T13:48:41.726Z,2.63
2023-05-05T13:51:08.893Z,2.53
2023-05-05T13:53:36.438Z,4.13
2023-05-05T13:56:04.069Z,2.80
2023-05-05T13:58:31.451Z,2.70
2023-05-05T14:00:58.586Z,3.38
2023-05-05T14:03:26.366Z,3.13
2023-05-05T14:05:53.424Z,2.35
2023-05-05T14:08:20.910Z,2.63
2023-05-05T14:10:49.104Z,2.92
2023-05-05T14:13:17.870Z,2.65
2023-05-05T14:15:45.071Z,3.00
2023-05-05T14:18:12.995Z,2.53
2023-05-05T14:20:40.161Z,2.53
2023-05-05T14:23:07.304Z,2.30
2023-05-05T14:25:34.492Z,2.45
2023-05-05T14:28:01.592Z,2.72
2023-05-05T14:30:28.857Z,2.67
2023-05-05T14:32:56.624Z,2.50
2023-05-05T14:35:23.785Z,2.78
2023-05-05T14:37:51.247Z,2.22
2023-05-05T14:40:18.341Z,2.70
2023-05-05T14:42:45.667Z,2.83
2023-05-05T14:45:12.973Z,2.40
2023-05-05T14:47:40.102Z,2.53
2023-05-05T14:50:10.183Z,2.70
2023-05-05T14:52:40.532Z,2.60
2023-05-05T14:55:08.241Z,2.58
2023-05-05T14:57:35.593Z,2.63
2023-05-05T15:00:02.916Z,2.80
2023-05-05T15:02:30.212Z,2.50
2023-05-05T15:04:57.365Z,2.60
2023-05-05T15:07:28.669Z,2.58
2023-05-05T15:09:59.209Z,2.30
2023-05-05T15:12:26.395Z,2.00
2023-05-05T15:14:53.817Z,2.20
2023-05-05T15:17:20.912Z,2.67
2023-05-05T15:19:48.026Z,2.47
2023-05-05T15:22:15.172Z,1.90
2023-05-05T15:24:42.280Z,2.90
2023-05-05T15:27:09.487Z,2.90
2023-05-05T15:29:36.659Z,1.80
2023-05-05T15:32:03.936Z,2.13
2023-05-05T15:34:31.271Z,1.60
2023-05-05T15:36:58.424Z,1.70
2023-05-05T15:39:25.630Z,2.10
2023-05-05T15:41:52.759Z,2.17
2023-05-05T15:44:19.884Z,1.95
2023-05-05T15:46:49.724Z,2.00
2023-05-05T15:49:17.536Z,2.20
2023-05-05T15:51:44.701Z,2.50
2023-05-05T15:54:11.805Z,2.10
2023-05-05T15:56:38.860Z,2.55
2023-05-05T15:59:06.188Z,2.60
2023-05-05T16:01:33.931Z,3.72
2023-05-05T16:04:01.588Z,2.42
2023-05-05T16:06:28.756Z,2.30
2023-05-05T16:08:58.768Z,2.60
2023-05-05T16:11:26.908Z,2.10
2023-05-05T16:13:54.467Z,3.08
2023-05-05T16:16:22.073Z,2.88
2023-05-05T16:18:49.290Z,2.35
2023-05-05T16:21:16.475Z,2.70
2023-05-05T16:23:43.849Z,3.10
2023-05-05T16:26:11.518Z,2.65
2023-05-05T16:28:38.920Z,2.85
2023-05-05T16:31:06.549Z,2.53
2023-05-05T16:33:33.833Z,2.63
2023-05-05T16:36:01.271Z,2.97
2023-05-05T16:38:28.360Z,2.90
2023-05-05T16:40:56.263Z,2.63
2023-05-05T16:43:23.326Z,2.30
2023-05-05T16:45:51.422Z,2.80
2023-05-05T16:48:19.099Z,2.65
2023-05-05T16:50:47.215Z,2.40
2023-05-05T16:53:14.276Z,2.63
2023-05-05T16:55:41.793Z,2.50
2023-05-05T16:58:09.121Z,2.92
2023-05-05T17:00:36.681Z,2.72
2023-05-05T17:03:04.039Z,2.60
2023-05-05T17:05:31.923Z,2.85
2023-05-05T17:07:59.169Z,2.55
2023-05-05T17:10:26.888Z,3.17
2023-05-05T17:12:53.963Z,3.08
2023-05-05T17:15:22.316Z,3.38
2023-05-05T17:17:49.472Z,3.00
2023-05-05T17:20:16.950Z,4.07
2023-05-05T17:22:44.342Z,3.25
2023-05-05T17:25:11.908Z,2.95
2023-05-05T17:27:39.531Z,3.63
2023-05-05T17:30:08.246Z,3.78
2023-05-05T17:32:35.347Z,4.68
2023-05-05T17:35:03.616Z,6.53
2023-05-05T17:37:31.135Z,5.38
2023-05-05T17:39:58.646Z,4.35
2023-05-05T17:42:27.360Z,3.90
2023-05-05T17:44:54.427Z,3.88
2023-05-05T17:47:23.012Z,3.95
2023-05-05T17:49:51.662Z,3.72
2023-05-05T17:52:19.709Z,4.88
2023-05-05T17:54:47.122Z,3.53
2023-05-05T17:57:14.754Z,4.03
2023-05-05T17:59:41.801Z,4.05
2023-05-05T18:02:09.727Z,4.32
2023-05-05T18:04:37.394Z,4.57
2023-05-05T18:07:05.416Z,3.80
2023-05-05T18:09:32.800Z,3.58
2023-05-05T18:12:00.362Z,3.53
2023-05-05T18:14:27.431Z,4.25
2023-05-05T18:16:55.318Z,3.63
2023-05-05T18:19:24.129Z,4.82
2023-05-05T18:21:52.922Z,4.05
2023-05-05T18:24:20.842Z,5.13
2023-05-05T18:26:50.755Z,5.53
2023-05-05T18:29:19.050Z,4.22
2023-05-05T18:31:52.277Z,5.93
2023-05-05T18:34:20.954Z,4.82
2023-05-05T18:36:48.626Z,4.35
2023-05-05T18:39:16.375Z,4.90
2023-05-05T18:41:43.626Z,5.00
2023-05-05T18:44:11.616Z,4.35
2023-05-05T18:46:39.346Z,4.57
2023-05-05T18:49:07.033Z,4.82
2023-05-05T18:51:35.951Z,5.85
2023-05-05T18:54:03.937Z,5.28
2023-05-05T18:56:31.047Z,5.35
2023-05-05T18:58:58.501Z,5.38
2023-05-05T19:01:25.917Z,5.72
2023-05-05T19:03:53.388Z,5.68
2023-05-05T19:06:20.603Z,4.78
2023-05-05T19:08:49.166Z,5.82
2023-05-05T19:11:16.349Z,5.78
2023-05-05T19:13:43.747Z,6.25
2023-05-05T19:16:12.070Z,5.85
2023-05-05T19:18:40.176Z,5.30
2023-05-05T19:21:07.361Z,4.82
2023-05-05T19:23:36.656Z,5.63
2023-05-05T19:26:04.077Z,5.80
2023-05-05T19:28:32.312Z,5.60
2023-05-05T19:30:59.664Z,5.90
2023-05-05T19:33:27.275Z,5.30
2023-05-05T19:35:54.342Z,5.07
2023-05-05T19:38:21.481Z,5.00
2023-05-05T19:40:48.752Z,5.60
2023-05-05T19:43:16.089Z,5.80
2023-05-05T19:45:43.288Z,5.93
2023-05-05T19:48:10.496Z,5.60
2023-05-05T19:50:37.693Z,6.10
2023-05-05T19:53:05.067Z,5.72
2023-05-05T19:55:33.473Z,5.57
2023-05-05T19:58:00.579Z,6.35
2023-05-05T20:00:27.864Z,5.90
2023-05-05T20:02:55.164Z,6.90
2023-05-05T20:05:23.245Z,7.15
2023-05-05T20:07:51.117Z,6.85
2023-05-05T20:10:18.407Z,6.82
2023-05-05T20:12:49.364Z,6.88
2023-05-05T20:15:19.451Z,7.88
2023-05-05T20:17:47.777Z,7.65
2023-05-05T20:20:22.896Z,6.82
2023-05-05T20:22:50.066Z,7.05
2023-05-05T20:25:17.369Z,7.13
2023-05-05T20:27:45.772Z,7.65
2023-05-05T20:30:13.578Z,7.68
2023-05-05T20:32:41.897Z,7.28
2023-05-05T20:35:09.908Z,6.20
2023-05-05T20:37:37.076Z,5.63
2023-05-05T20:40:04.463Z,6.97
2023-05-05T20:42:31.735Z,6.53
2023-05-05T20:45:01.099Z,5.95
2023-05-05T20:47:28.313Z,5.82
2023-05-05T20:49:55.790Z,6.07
2023-05-05T20:52:22.907Z,5.60
2023-05-05T20:54:50.053Z,7.25
2023-05-05T20:57:17.589Z,7.25
2023-05-05T20:59:44.752Z,7.32
2023-05-05T21:02:12.005Z,6.55
2023-05-05T21:04:39.250Z,7.35
2023-05-05T21:07:06.909Z,6.55
2023-05-05T21:09:35.751Z,6.70
2023-05-05T21:12:05.446Z,7.28
2023-05-05T21:14:32.607Z,7.10
2023-05-05T21:16:59.768Z,7.68
2023-05-05T21:19:27.110Z,7.65
2023-05-05T21:21:54.241Z,7.40
2023-05-05T21:24:21.497Z,7.70
2023-05-05T21:26:48.614Z,8.20
2023-05-05T21:29:15.773Z,8.35
2023-05-05T21:31:43.002Z,8.00
2023-05-05T21:34:10.198Z,8.40
2023-05-05T21:36:38.740Z,8.07
2023-05-05T21:39:05.868Z,8.13
2023-05-05T21:41:33.094Z,7.95
2023-05-05T21:44:00.322Z,8.27
2023-05-05T21:46:27.729Z,9.00
2023-05-05T21:48:54.941Z,8.60
2023-05-05T21:51:23.769Z,10.00
2023-05-05T21:53:50.832Z,8.75
2023-05-05T21:56:18.041Z,8.45
2023-05-05T21:58:45.230Z,8.27
2023-05-05T22:01:12.465Z,8.65
2023-05-05T22:03:39.737Z,7.97
2023-05-05T22:06:07.046Z,8.05
2023-05-05T22:08:34.205Z,7.90
2023-05-05T22:11:02.032Z,7.82
2023-05-05T22:13:29.126Z,8.50
2023-05-05T22:15:56.339Z,10.35
2023-05-05T22:18:23.420Z,12.05
2023-05-05T22:20:51.592Z,12.07
2023-05-05T22:23:18.740Z,9.27
2023-05-05T22:25:46.879Z,8.27
2023-05-05T22:28:14.097Z,9.13
2023-05-05T22:30:41.807Z,9.82
2023-05-05T22:33:09.400Z,9.88
2023-05-05T22:35:38.535Z,10.30
2023-05-05T22:38:06.323Z,8.88
2023-05-05T22:40:34.294Z,8.73
2023-05-05T22:43:02.002Z,9.60
2023-05-05T22:45:29.390Z,8.90
2023-05-05T22:47:56.561Z,9.93
2023-05-05T22:50:24.216Z,9.38
2023-05-05T22:52:51.297Z,9.30
2023-05-05T22:55:18.872Z,9.50
2023-05-05T22:57:46.528Z,10.23
2023-05-05T23:00:14.877Z,10.13
2023-05-05T23:02:41.987Z,10.13
2023-05-05T23:05:10.866Z,10.57
2023-05-05T23:07:38.411Z,10.50
2023-05-05T23:10:06.318Z,10.30
2023-05-05T23:12:34.158Z,10.48
2023-05-05T23:15:01.678Z,9.90
2023-05-05T23:17:28.738Z,9.65
2023-05-05T23:19:56.455Z,11.05
2023-05-05T23:22:23.582Z,10.40
2023-05-05T23:24:50.726Z,11.18
2023-05-05T23:27:17.911Z,9.98
2023-05-05T23:29:44.992Z,11.05
2023-05-05T23:32:12.251Z,10.02
2023-05-05T23:34:39.339Z,10.38
2023-05-05T23:37:06.552Z,10.60
2023-05-05T23:39:35.006Z,10.82
2023-05-05T23:42:03.495Z,11.40
2023-05-05T23:44:30.643Z,10.70
2023-05-05T23:46:58.428Z,9.55
2023-05-05T23:49:26.839Z,10.30
2023-05-05T23:51:54.162Z,10.25
2023-05-05T23:54:21.472Z,10.73
2023-05-05T23:56:48.961Z,11.57
2023-05-05T23:59:16.086Z,12.55
